sensor_id;sensor_type;location;lat;lon;timestamp;pressure;altitude;pressure_sealevel;temperature;humidity
48774;BME280;34576;0.000;0.000;2024-03-06T00:02:54;96665.00;;;17.17;67.18
48774;BME280;34576;0.000;0.000;2024-03-06T00:09:55;96665.28;;;17.15;67.34
48774;BME280;34576;0.000;0.000;2024-03-06T00:16:55;96677.22;;;17.18;66.85
48774;BME280;34576;0.000;0.000;2024-03-06T00:23:58;96675.63;;;17.17;67.12
48774;BME280;34576;0.000;0.000;2024-03-06T00:30:58;96666.84;;;17.27;67.59
48774;BME280;34576;0.000;0.000;2024-03-06T00:37:59;96682.78;;;17.21;67.63
48774;BME280;34576;0.000;0.000;2024-03-06T00:45:02;96687.28;;;17.31;66.88
48774;BME280;34576;0.000;0.000;2024-03-06T00:52:03;96692.09;;;17.24;67.35
48774;BME280;34576;0.000;0.000;2024-03-06T00:59:04;96694.47;;;17.25;66.79
48774;BME280;34576;0.000;0.000;2024-03-06T01:06:04;96704.56;;;17.29;67.00
48774;BME280;34576;0.000;0.000;2024-03-06T01:13:04;96699.25;;;17.29;66.87
48774;BME280;34576;0.000;0.000;2024-03-06T01:20:05;96700.06;;;17.29;67.45
48774;BME280;34576;0.000;0.000;2024-03-06T01:27:06;96704.06;;;17.32;67.83
48774;BME280;34576;0.000;0.000;2024-03-06T01:34:07;96704.84;;;17.32;68.36
48774;BME280;34576;0.000;0.000;2024-03-06T01:41:07;96712.53;;;17.34;68.51
48774;BME280;34576;0.000;0.000;2024-03-06T01:48:08;96707.22;;;17.34;68.78
48774;BME280;34576;0.000;0.000;2024-03-06T01:55:08;96709.88;;;17.34;69.15
48774;BME280;34576;0.000;0.000;2024-03-06T02:02:09;96717.88;;;17.34;68.76
48774;BME280;34576;0.000;0.000;2024-03-06T02:09:12;96718.66;;;17.34;68.91
48774;BME280;34576;0.000;0.000;2024-03-06T02:16:14;96719.44;;;17.40;69.07
48774;BME280;34576;0.000;0.000;2024-03-06T02:23:14;96718.38;;;17.41;69.21
48774;BME280;34576;0.000;0.000;2024-03-06T02:30:20;96719.44;;;17.40;69.58
48774;BME280;34576;0.000;0.000;2024-03-06T02:37:21;96722.09;;;17.40;69.85
48774;BME280;34576;0.000;0.000;2024-03-06T02:44:21;96718.38;;;17.41;70.03
48774;BME280;34576;0.000;0.000;2024-03-06T02:51:21;96723.69;;;17.41;70.09
48774;BME280;34576;0.000;0.000;2024-03-06T02:58:22;96722.91;;;17.40;69.97
48774;BME280;34576;0.000;0.000;2024-03-06T03:05:22;96738.88;;;17.40;70.22
48774;BME280;34576;0.000;0.000;2024-03-06T03:12:22;96740.47;;;17.41;70.40
48774;BME280;34576;0.000;0.000;2024-03-06T03:19:23;96743.38;;;17.40;70.65
48774;BME280;34576;0.000;0.000;2024-03-06T03:26:23;96742.84;;;17.43;70.19
48774;BME280;34576;0.000;0.000;2024-03-06T03:33:23;96739.66;;;17.41;70.57
48774;BME280;34576;0.000;0.000;2024-03-06T03:40:24;96737.00;;;17.41;70.78
48774;BME280;34576;0.000;0.000;2024-03-06T03:47:24;96742.31;;;17.41;71.04
48774;BME280;34576;0.000;0.000;2024-03-06T03:54:24;96758.81;;;17.43;70.65
48774;BME280;34576;0.000;0.000;2024-03-06T04:01:25;96755.88;;;17.45;70.56
48774;BME280;34576;0.000;0.000;2024-03-06T04:08:25;96758.78;;;17.48;70.65
48774;BME280;34576;0.000;0.000;2024-03-06T04:15:26;96755.06;;;17.44;70.78
48774;BME280;34576;0.000;0.000;2024-03-06T04:22:26;96772.63;;;17.45;70.87
48774;BME280;34576;0.000;0.000;2024-03-06T04:29:27;96778.72;;;17.46;70.26
48774;BME280;34576;0.000;0.000;2024-03-06T04:36:27;96780.06;;;17.48;70.79
48774;BME280;34576;0.000;0.000;2024-03-06T04:43:27;96787.53;;;17.46;70.73
48774;BME280;34576;0.000;0.000;2024-03-06T04:50:27;96792.28;;;17.44;70.82
48774;BME280;34576;0.000;0.000;2024-03-06T04:57:28;96802.94;;;17.44;71.19
48774;BME280;34576;0.000;0.000;2024-03-06T05:04:28;96810.91;;;17.44;71.11
48774;BME280;34576;0.000;0.000;2024-03-06T05:11:28;96808.78;;;17.41;71.27
48774;BME280;34576;0.000;0.000;2024-03-06T05:18:29;96806.41;;;17.39;70.89
48774;BME280;34576;0.000;0.000;2024-03-06T05:25:30;96817.22;;;16.55;62.58
48774;BME280;34576;0.000;0.000;2024-03-06T05:32:30;96845.94;;;13.26;56.37
48774;BME280;34576;0.000;0.000;2024-03-06T05:39:31;96846.00;;;12.68;55.07
48774;BME280;34576;0.000;0.000;2024-03-06T05:46:31;96856.25;;;12.65;53.66
48774;BME280;34576;0.000;0.000;2024-03-06T05:53:38;96859.53;;;13.86;53.39
48774;BME280;34576;0.000;0.000;2024-03-06T06:00:40;96855.50;;;15.96;53.52
48774;BME280;34576;0.000;0.000;2024-03-06T06:07:41;96868.63;;;16.24;54.96
48774;BME280;34576;0.000;0.000;2024-03-06T06:14:41;96889.38;;;16.32;56.53
48774;BME280;34576;0.000;0.000;2024-03-06T06:21:41;96887.75;;;16.36;57.68
48774;BME280;34576;0.000;0.000;2024-03-06T06:28:42;96889.38;;;16.37;58.59
48774;BME280;34576;0.000;0.000;2024-03-06T06:35:42;96902.66;;;16.37;59.34
48774;BME280;34576;0.000;0.000;2024-03-06T06:42:47;96907.44;;;16.40;59.81
48774;BME280;34576;0.000;0.000;2024-03-06T06:49:49;96920.72;;;16.40;60.45
48774;BME280;34576;0.000;0.000;2024-03-06T06:56:50;96920.75;;;16.45;60.47
48774;BME280;34576;0.000;0.000;2024-03-06T07:03:50;96924.72;;;16.43;60.99
48774;BME280;34576;0.000;0.000;2024-03-06T07:10:50;96931.06;;;16.42;61.21
48774;BME280;34576;0.000;0.000;2024-03-06T07:17:53;96944.91;;;16.44;61.53
48774;BME280;34576;0.000;0.000;2024-03-06T07:24:53;96945.69;;;16.44;61.66
48774;BME280;34576;0.000;0.000;2024-03-06T07:31:54;96948.91;;;16.46;61.72
48774;BME280;34576;0.000;0.000;2024-03-06T07:38:55;96956.31;;;16.44;61.77
48774;BME280;34576;0.000;0.000;2024-03-06T07:45:55;96964.84;;;16.46;62.05
48774;BME280;34576;0.000;0.000;2024-03-06T07:52:55;96971.97;;;16.46;62.13
48774;BME280;34576;0.000;0.000;2024-03-06T07:59:56;96978.13;;;16.46;62.23
48774;BME280;34576;0.000;0.000;2024-03-06T08:06:56;96990.06;;;16.49;62.13
48774;BME280;34576;0.000;0.000;2024-03-06T08:13:57;96987.16;;;16.50;62.15
48774;BME280;34576;0.000;0.000;2024-03-06T08:20:57;96992.97;;;16.47;62.30
48774;BME280;34576;0.000;0.000;2024-03-06T08:27:57;96993.22;;;16.46;62.49
48774;BME280;34576;0.000;0.000;2024-03-06T08:34:59;97001.50;;;16.49;62.30
48774;BME280;34576;0.000;0.000;2024-03-06T08:41:59;97004.69;;;16.51;62.38
48774;BME280;34576;0.000;0.000;2024-03-06T08:49:00;97003.59;;;16.47;62.66
48774;BME280;34576;0.000;0.000;2024-03-06T08:56:01;97020.06;;;16.49;62.42
48774;BME280;34576;0.000;0.000;2024-03-06T09:03:02;97030.22;;;16.58;62.30
48774;BME280;34576;0.000;0.000;2024-03-06T09:10:04;97021.69;;;16.55;62.60
48774;BME280;34576;0.000;0.000;2024-03-06T09:17:05;97027.56;;;16.63;62.38
48774;BME280;34576;0.000;0.000;2024-03-06T09:24:06;97021.53;;;16.72;62.33
48774;BME280;34576;0.000;0.000;2024-03-06T09:31:06;97030.00;;;16.69;62.32
48774;BME280;34576;0.000;0.000;2024-03-06T09:38:07;97033.72;;;16.68;62.23
48774;BME280;34576;0.000;0.000;2024-03-06T09:45:07;97036.63;;;16.67;62.42
48774;BME280;34576;0.000;0.000;2024-03-06T09:52:07;97045.13;;;16.64;62.65
48774;BME280;34576;0.000;0.000;2024-03-06T09:59:08;97045.91;;;16.64;62.35
48774;BME280;34576;0.000;0.000;2024-03-06T10:06:09;97051.75;;;16.61;62.54
48774;BME280;34576;0.000;0.000;2024-03-06T10:13:09;97052.84;;;16.65;62.61
48774;BME280;34576;0.000;0.000;2024-03-06T10:20:19;97062.94;;;16.63;62.60
48774;BME280;34576;0.000;0.000;2024-03-06T10:27:20;97052.50;;;16.56;62.78
48774;BME280;34576;0.000;0.000;2024-03-06T10:34:22;97056.25;;;16.61;62.85
48774;BME280;34576;0.000;0.000;2024-03-06T10:41:23;97053.06;;;16.59;62.91
48774;BME280;34576;0.000;0.000;2024-03-06T10:48:25;97060.50;;;16.56;62.79
48774;BME280;34576;0.000;0.000;2024-03-06T10:55:28;97042.16;;;16.60;62.82
48774;BME280;34576;0.000;0.000;2024-03-06T11:02:30;97042.44;;;16.59;62.99
48774;BME280;34576;0.000;0.000;2024-03-06T11:09:33;97043.75;;;16.56;63.08
48774;BME280;34576;0.000;0.000;2024-03-06T11:24:17;97062.06;;;16.52;62.94
48774;BME280;34576;0.000;0.000;2024-03-06T11:31:18;97050.13;;;16.55;63.08
48774;BME280;34576;0.000;0.000;2024-03-06T11:38:20;97050.38;;;16.53;63.15
48774;BME280;34576;0.000;0.000;2024-03-06T11:45:21;97043.75;;;16.56;62.90
48774;BME280;34576;0.000;0.000;2024-03-06T11:52:24;97040.03;;;16.57;63.17
48774;BME280;34576;0.000;0.000;2024-03-06T12:06:26;97043.19;;;16.54;63.15
48774;BME280;34576;0.000;0.000;2024-03-06T12:13:27;97032.03;;;16.52;63.36
48774;BME280;34576;0.000;0.000;2024-03-06T12:20:27;97029.91;;;16.54;63.20
48774;BME280;34576;0.000;0.000;2024-03-06T12:27:27;97029.13;;;16.53;63.21
48774;BME280;34576;0.000;0.000;2024-03-06T12:34:29;97025.41;;;16.54;63.38
48774;BME280;34576;0.000;0.000;2024-03-06T12:41:32;97025.97;;;16.56;63.34
48774;BME280;34576;0.000;0.000;2024-03-06T12:48:32;97025.97;;;16.56;63.34
48774;BME280;34576;0.000;0.000;2024-03-06T12:55:33;97024.91;;;16.58;63.22
48774;BME280;34576;0.000;0.000;2024-03-06T13:02:33;97010.56;;;16.59;63.35
48774;BME280;34576;0.000;0.000;2024-03-06T13:09:33;97004.19;;;16.60;63.32
48774;BME280;34576;0.000;0.000;2024-03-06T13:16:33;97008.97;;;16.58;63.54
48774;BME280;34576;0.000;0.000;2024-03-06T13:23:34;97001.50;;;16.54;63.35
48774;BME280;34576;0.000;0.000;2024-03-06T13:30:35;96997.25;;;16.53;63.43
48774;BME280;34576;0.000;0.000;2024-03-06T13:37:35;97006.81;;;16.54;63.36
48774;BME280;34576;0.000;0.000;2024-03-06T13:44:35;97007.88;;;16.53;63.34
48774;BME280;34576;0.000;0.000;2024-03-06T13:51:36;97015.28;;;16.51;63.51
48774;BME280;34576;0.000;0.000;2024-03-06T13:58:36;97016.38;;;16.50;63.36
48774;BME280;34576;0.000;0.000;2024-03-06T14:05:36;97028.03;;;16.49;63.45
48774;BME280;34576;0.000;0.000;2024-03-06T14:12:37;97029.34;;;16.47;63.46
48774;BME280;34576;0.000;0.000;2024-03-06T14:19:38;97030.13;;;16.47;63.41
48774;BME280;34576;0.000;0.000;2024-03-06T14:26:39;97030.13;;;16.47;63.38
48774;BME280;34576;0.000;0.000;2024-03-06T14:33:39;97039.47;;;16.50;63.28
48774;BME280;34576;0.000;0.000;2024-03-06T14:40:39;97054.28;;;16.46;63.27
48774;BME280;34576;0.000;0.000;2024-03-06T14:47:39;97052.94;;;16.43;63.61
48774;BME280;34576;0.000;0.000;2024-03-06T14:54:40;97056.13;;;16.40;63.54
48774;BME280;34576;0.000;0.000;2024-03-06T15:01:44;97055.31;;;16.39;63.39
48774;BME280;34576;0.000;0.000;2024-03-06T15:08:44;97058.25;;;16.38;63.46
48774;BME280;34576;0.000;0.000;2024-03-06T15:15:44;97059.84;;;16.39;63.32
48774;BME280;34576;0.000;0.000;2024-03-06T15:22:45;97065.66;;;16.36;63.42
48774;BME280;34576;0.000;0.000;2024-03-06T15:29:45;97075.47;;;16.35;63.42
48774;BME280;34576;0.000;0.000;2024-03-06T15:36:45;97080.00;;;16.35;63.27
48774;BME280;34576;0.000;0.000;2024-03-06T15:43:46;97077.59;;;16.33;63.22
48774;BME280;34576;0.000;0.000;2024-03-06T15:50:46;97077.84;;;16.32;63.27
48774;BME280;34576;0.000;0.000;2024-03-06T15:57:46;97086.88;;;16.31;63.26
48774;BME280;34576;0.000;0.000;2024-03-06T16:04:47;97084.47;;;16.29;63.39
48774;BME280;34576;0.000;0.000;2024-03-06T16:11:47;97087.13;;;16.29;63.34
48774;BME280;34576;0.000;0.000;2024-03-06T16:18:47;97087.13;;;16.29;63.30
48774;BME280;34576;0.000;0.000;2024-03-06T16:25:47;97092.13;;;16.26;63.39
48774;BME280;34576;0.000;0.000;2024-03-06T16:32:48;97102.22;;;16.29;63.24
48774;BME280;34576;0.000;0.000;2024-03-06T16:39:49;97103.00;;;16.24;63.17
48774;BME280;34576;0.000;0.000;2024-03-06T16:46:50;97113.88;;;16.22;63.34
48774;BME280;34576;0.000;0.000;2024-03-06T16:53:50;97114.91;;;16.21;63.26
48774;BME280;34576;0.000;0.000;2024-03-06T17:00:52;97115.47;;;16.24;63.15
48774;BME280;34576;0.000;0.000;2024-03-06T17:07:53;97115.25;;;16.30;62.89
48774;BME280;34576;0.000;0.000;2024-03-06T17:14:53;97121.97;;;16.43;62.58
48774;BME280;34576;0.000;0.000;2024-03-06T17:21:53;97122.81;;;16.44;62.37
48774;BME280;34576;0.000;0.000;2024-03-06T17:28:54;97125.47;;;16.49;62.30
48774;BME280;34576;0.000;0.000;2024-03-06T17:35:54;97131.03;;;16.47;62.37
48774;BME280;34576;0.000;0.000;2024-03-06T17:42:56;97135.31;;;16.48;62.06
48774;BME280;34576;0.000;0.000;2024-03-06T17:49:56;97140.34;;;16.45;62.09
48774;BME280;34576;0.000;0.000;2024-03-06T17:56:56;97141.59;;;16.37;62.29
48774;BME280;34576;0.000;0.000;2024-03-06T18:03:58;97146.38;;;16.35;62.58
48774;BME280;34576;0.000;0.000;2024-03-06T18:10:59;97148.47;;;16.33;62.56
48774;BME280;34576;0.000;0.000;2024-03-06T18:17:59;97147.16;;;16.35;62.40
48774;BME280;34576;0.000;0.000;2024-03-06T18:24:59;97150.84;;;16.29;62.61
48774;BME280;34576;0.000;0.000;2024-03-06T18:32:03;97152.13;;;16.27;62.65
48774;BME280;34576;0.000;0.000;2024-03-06T18:39:06;97146.81;;;16.27;62.63
48774;BME280;34576;0.000;0.000;2024-03-06T18:46:07;97146.03;;;16.26;62.79
48774;BME280;34576;0.000;0.000;2024-03-06T18:53:07;97146.81;;;16.27;62.65
48774;BME280;34576;0.000;0.000;2024-03-06T19:00:07;97148.13;;;16.24;62.60
48774;BME280;34576;0.000;0.000;2024-03-06T19:07:08;97148.31;;;16.17;62.85
48774;BME280;34576;0.000;0.000;2024-03-06T19:14:08;97142.53;;;16.20;62.57
48774;BME280;34576;0.000;0.000;2024-03-06T19:21:09;97144.13;;;16.21;62.67
48774;BME280;34576;0.000;0.000;2024-03-06T19:28:10;97137.75;;;16.22;62.66
48774;BME280;34576;0.000;0.000;2024-03-06T19:35:10;97143.00;;;16.17;62.82
48774;BME280;34576;0.000;0.000;2024-03-06T19:42:11;97140.91;;;16.19;62.77
48774;BME280;34576;0.000;0.000;2024-03-06T19:49:11;97139.81;;;16.15;62.79
48774;BME280;34576;0.000;0.000;2024-03-06T19:56:11;97137.66;;;16.12;62.78
48774;BME280;34576;0.000;0.000;2024-03-06T20:03:12;97131.06;;;16.15;62.79
48774;BME280;34576;0.000;0.000;2024-03-06T20:10:13;97133.66;;;16.10;63.20
48774;BME280;34576;0.000;0.000;2024-03-06T20:17:13;97133.41;;;16.11;62.84
48774;BME280;34576;0.000;0.000;2024-03-06T20:24:15;97130.75;;;16.11;62.89
48774;BME280;34576;0.000;0.000;2024-03-06T20:31:16;97130.16;;;16.04;63.02
48774;BME280;34576;0.000;0.000;2024-03-06T20:38:17;97123.34;;;16.13;62.58
48774;BME280;34576;0.000;0.000;2024-03-06T20:45:17;97119.84;;;16.40;62.11
48774;BME280;34576;0.000;0.000;2024-03-06T20:52:18;97114.63;;;16.50;62.33
48774;BME280;34576;0.000;0.000;2024-03-06T20:59:18;97111.47;;;16.53;62.48
48774;BME280;34576;0.000;0.000;2024-03-06T21:06:18;97107.19;;;16.52;62.83
48774;BME280;34576;0.000;0.000;2024-03-06T21:13:19;97105.06;;;16.54;63.01
48774;BME280;34576;0.000;0.000;2024-03-06T21:20:19;97105.63;;;16.56;63.00
48774;BME280;34576;0.000;0.000;2024-03-06T21:27:19;97114.69;;;16.61;63.18
48774;BME280;34576;0.000;0.000;2024-03-06T21:34:20;97106.16;;;16.59;63.43
48774;BME280;34576;0.000;0.000;2024-03-06T21:41:20;97088.13;;;16.61;63.57
48774;BME280;34576;0.000;0.000;2024-03-06T21:48:20;97097.16;;;16.60;63.94
48774;BME280;34576;0.000;0.000;2024-03-06T21:55:20;97096.63;;;16.63;63.76
48774;BME280;34576;0.000;0.000;2024-03-06T22:02:21;97088.97;;;16.66;64.83
48774;BME280;34576;0.000;0.000;2024-03-06T22:09:21;97093.72;;;16.64;65.38
48774;BME280;34576;0.000;0.000;2024-03-06T22:16:21;97092.97;;;16.69;65.30
48774;BME280;34576;0.000;0.000;2024-03-06T22:23:23;97096.69;;;16.73;65.98
48774;BME280;34576;0.000;0.000;2024-03-06T22:30:23;97087.69;;;16.74;66.13
48774;BME280;34576;0.000;0.000;2024-03-06T22:37:25;97093.50;;;16.71;66.25
48774;BME280;34576;0.000;0.000;2024-03-06T22:44:27;97077.56;;;16.71;66.52
48774;BME280;34576;0.000;0.000;2024-03-06T22:51:27;97077.06;;;16.74;66.58
48774;BME280;34576;0.000;0.000;2024-03-06T22:58:28;97062.69;;;16.70;66.60
48774;BME280;34576;0.000;0.000;2024-03-06T23:05:28;97062.16;;;16.73;66.44
48774;BME280;34576;0.000;0.000;2024-03-06T23:12:28;97064.59;;;16.74;66.50
48774;BME280;34576;0.000;0.000;2024-03-06T23:19:28;97062.16;;;16.73;66.69
48774;BME280;34576;0.000;0.000;2024-03-06T23:26:29;97055.78;;;16.74;66.68
48774;BME280;34576;0.000;0.000;2024-03-06T23:33:30;97052.34;;;16.79;67.04
48774;BME280;34576;0.000;0.000;2024-03-06T23:40:30;97046.25;;;16.78;66.95
48774;BME280;34576;0.000;0.000;2024-03-06T23:47:31;97035.63;;;16.78;66.78
48774;BME280;34576;0.000;0.000;2024-03-06T23:54:31;97037.25;;;16.79;66.95
